Time;durP1;ratioP1;P1;durP2;ratioP2;P2;SDS_P1;SDS_P2;PMS_P1;PMS_P2;Temp;Humidity;BMP_temperature;BMP_pressure;BME280_temperature;BME280_humidity;BME280_pressure;Samples;Min_cycle;Max_cycle;Signal;HPM_P1;HPM_P2
2023/03/02 00:01:09;;;;;;;35.63;17.87;;;2.20;1.00;;;;;;5056658;28;20405;-72
2023/03/02 00:03:40;;;;;;;45.80;15.80;;;2.40;1.00;;;;;;5041700;28;20186;-72
2023/03/02 00:06:07;;;;;;;40.00;17.27;;;2.50;1.00;;;;;;5036001;28;20992;-72
2023/03/02 00:08:34;;;;;;;58.73;15.53;;;2.50;1.00;;;;;;5050024;28;20462;-74
2023/03/02 00:11:00;;;;;;;42.07;16.33;;;2.60;1.00;;;;;;5056728;28;21221;-75
2023/03/02 00:13:29;;;;;;;38.87;15.00;;;2.50;1.00;;;;;;5056060;28;20432;-75
2023/03/02 00:15:54;;;;;;;48.10;17.60;;;2.50;1.00;;;;;;5055011;28;20436;-75
2023/03/02 00:18:20;;;;;;;44.47;17.57;;;2.50;1.00;;;;;;5043046;28;20568;-75
2023/03/02 00:20:46;;;;;;;45.30;16.87;;;2.50;1.00;;;;;;5036695;28;20258;-75
2023/03/02 00:23:12;;;;;;;58.00;18.70;;;2.40;1.00;;;;;;5036602;28;20171;-73
2023/03/02 00:25:39;;;;;;;41.00;18.37;;;2.40;1.00;;;;;;5034334;28;20219;-72
2023/03/02 00:28:04;;;;;;;33.73;15.40;;;2.30;1.00;;;;;;5035619;28;20834;-75
2023/03/02 00:30:30;;;;;;;36.07;16.83;;;2.30;1.00;;;;;;5036671;28;20398;-75
2023/03/02 00:32:57;;;;;;;54.13;15.73;;;2.20;1.00;;;;;;5040316;28;20229;-73
2023/03/02 00:35:25;;;;;;;32.17;14.70;;;2.10;1.00;;;;;;5055498;28;20449;-75
2023/03/02 00:37:52;;;;;;;54.03;16.80;;;2.20;1.00;;;;;;5055412;28;20433;-72
2023/03/02 00:40:17;;;;;;;84.07;18.37;;;2.10;1.00;;;;;;5056313;28;20397;-75
2023/03/02 00:42:43;;;;;;;46.10;17.47;;;2.00;1.00;;;;;;5056383;28;20409;-75
2023/03/02 00:45:09;;;;;;;52.00;16.80;;;1.90;1.00;;;;;;5053031;28;20500;-72
2023/03/02 00:47:36;;;;;;;68.15;16.23;;;2.00;1.00;;;;;;5055239;28;20249;-72
2023/03/02 00:50:04;;;;;;;55.63;15.80;;;2.00;1.00;;;;;;5055281;28;20167;-72
2023/03/02 00:52:30;;;;;;;58.53;14.70;;;1.90;1.00;;;;;;5056065;28;20425;-75
2023/03/02 00:54:56;;;;;;;68.07;15.65;;;1.90;1.00;;;;;;5055084;28;20811;-74
2023/03/02 00:57:22;;;;;;;49.40;14.93;;;1.90;1.00;;;;;;5054904;28;20201;-72
2023/03/02 00:59:48;;;;;;;42.90;15.83;;;1.90;1.00;;;;;;5054741;28;20175;-75
2023/03/02 01:02:13;;;;;;;41.70;15.97;;;1.90;1.00;;;;;;5055954;28;20162;-75
2023/03/02 01:04:41;;;;;;;43.83;13.10;;;2.00;1.00;;;;;;5054946;28;20179;-75
2023/03/02 01:07:13;;;;;;;33.73;14.00;;;1.90;1.00;;;;;;5053759;28;20213;-73
2023/03/02 01:09:41;;;;;;;37.67;12.80;;;2.00;1.00;;;;;;5055575;28;20393;-72
2023/03/02 01:12:09;;;;;;;58.00;15.30;;;2.10;1.00;;;;;;5054353;28;20878;-74
2023/03/02 01:14:36;;;;;;;44.97;12.63;;;2.10;1.00;;;;;;5039735;28;20484;-75
2023/03/02 01:17:04;;;;;;;38.90;13.60;;;2.10;1.00;;;;;;5035663;28;20493;-74
2023/03/02 01:19:29;;;;;;;49.53;14.10;;;2.00;1.00;;;;;;5054562;28;20425;-72
2023/03/02 01:21:55;;;;;;;40.73;14.47;;;2.10;1.00;;;;;;5054805;28;20416;-75
2023/03/02 01:24:21;;;;;;;31.17;13.47;;;2.20;1.00;;;;;;5054984;28;20228;-72
2023/03/02 01:26:46;;;;;;;39.77;13.77;;;2.10;1.00;;;;;;5055437;28;20226;-74
2023/03/02 01:29:12;;;;;;;50.83;12.40;;;1.90;1.00;;;;;;5039845;28;20690;-72
2023/03/02 01:31:38;;;;;;;65.33;13.83;;;1.90;1.00;;;;;;5035496;28;20175;-72
2023/03/02 01:34:04;;;;;;;38.77;15.43;;;1.80;1.00;;;;;;5046117;28;20248;-72
2023/03/02 01:36:29;;;;;;;43.70;13.77;;;1.80;1.00;;;;;;5053176;28;20557;-72
2023/03/02 01:38:55;;;;;;;45.73;13.10;;;1.90;1.00;;;;;;5054348;28;20221;-72
2023/03/02 01:41:21;;;;;;;45.53;13.37;;;1.90;1.00;;;;;;5053334;28;20179;-74
2023/03/02 01:43:47;;;;;;;50.20;14.37;;;1.90;1.00;;;;;;5055054;28;20258;-74
2023/03/02 01:46:27;;;;;;;32.83;14.60;;;1.90;1.00;;;;;;5054073;28;20556;-75
2023/03/02 01:49:05;;;;;;;31.73;12.97;;;2.00;1.00;;;;;;5053980;28;20181;-72
2023/03/02 01:51:37;;;;;;;40.97;14.00;;;2.00;1.00;;;;;;5054936;28;20397;-73
2023/03/02 01:54:15;;;;;;;29.03;14.10;;;2.10;1.00;;;;;;5054850;28;20830;-75
2023/03/02 01:56:43;;;;;;;30.73;13.70;;;2.10;1.00;;;;;;5053428;28;20420;-72
2023/03/02 01:59:13;;;;;;;29.00;12.87;;;2.00;1.00;;;;;;5052879;28;20777;-72
2023/03/02 02:01:41;;;;;;;42.80;13.20;;;2.00;1.00;;;;;;5053418;28;20420;-73
2023/03/02 02:04:08;;;;;;;36.77;12.43;;;1.90;1.00;;;;;;5054480;28;20416;-76
2023/03/02 02:06:57;;;;;;;31.13;14.00;;;1.90;1.00;;;;;;5053989;28;20456;-75
2023/03/02 02:09:25;;;;;;;27.07;10.87;;;1.90;1.00;;;;;;5052409;28;20438;-75
2023/03/02 02:11:51;;;;;;;33.60;11.17;;;2.00;1.00;;;;;;5053969;28;20475;-72
2023/03/02 02:14:17;;;;;;;42.57;13.27;;;2.00;1.00;;;;;;5053356;28;20413;-76
2023/03/02 02:16:43;;;;;;;28.80;12.30;;;2.10;1.00;;;;;;5054200;28;20421;-75
2023/03/02 02:19:44;;;;;;;40.17;14.03;;;2.20;1.00;;;;;;5053321;28;20770;-72
2023/03/02 02:22:10;;;;;;;44.53;12.43;;;2.20;1.00;;;;;;5052431;28;20448;-72
2023/03/02 02:24:51;;;;;;;26.40;13.33;;;2.10;1.00;;;;;;5052374;28;21130;-73
2023/03/02 02:27:17;;;;;;;34.03;12.47;;;2.10;1.00;;;;;;5054349;28;20466;-72
2023/03/02 02:29:47;;;;;;;33.37;11.97;;;2.10;1.00;;;;;;5054221;28;20401;-73
2023/03/02 02:32:16;;;;;;;30.27;11.10;;;2.30;1.00;;;;;;5045145;28;20176;-75
2023/03/02 02:35:00;;;;;;;42.03;13.00;;;2.30;1.00;;;;;;5032571;28;20533;-75
2023/03/02 02:37:34;;;;;;;30.37;10.90;;;2.20;1.00;;;;;;5036406;28;20424;-72
2023/03/02 02:40:06;;;;;;;20.80;9.90;;;2.30;1.00;;;;;;5053327;28;20926;-73
2023/03/02 02:42:37;;;;;;;30.93;11.57;;;2.10;1.00;;;;;;5052800;28;20417;-72
2023/03/02 02:45:13;;;;;;;22.33;9.70;;;2.00;1.00;;;;;;5052832;28;20418;-72
2023/03/02 02:47:39;;;;;;;28.47;11.20;;;1.90;1.00;;;;;;5035026;28;20422;-71
2023/03/02 02:50:05;;;;;;;30.17;11.80;;;1.90;1.00;;;;;;5033827;28;20617;-74
2023/03/02 02:52:31;;;;;;;19.50;9.93;;;2.00;1.00;;;;;;5034050;28;20170;-74
2023/03/02 02:54:58;;;;;;;27.57;9.90;;;2.20;1.00;;;;;;5031711;28;20422;-75
2023/03/02 02:57:27;;;;;;;31.20;10.53;;;2.30;1.00;;;;;;5033838;28;20242;-72
2023/03/02 02:59:57;;;;;;;28.80;10.23;;;2.30;1.00;;;;;;5035138;28;20399;-73
2023/03/02 03:02:26;;;;;;;30.57;11.07;;;2.20;1.00;;;;;;5054166;28;20414;-75
2023/03/02 03:05:01;;;;;;;40.80;10.50;;;2.10;1.00;;;;;;5051902;28;20445;-72
2023/03/02 03:07:27;;;;;;;31.80;11.77;;;2.10;1.00;;;;;;5052603;28;20427;-75
2023/03/02 03:10:17;;;;;;;25.00;9.33;;;2.10;1.00;;;;;;5053544;28;20410;-73
2023/03/02 03:12:44;;;;;;;26.13;8.53;;;2.00;1.00;;;;;;5053544;28;20394;-75
2023/03/02 03:15:10;;;;;;;26.30;10.60;;;1.90;1.00;;;;;;5052813;28;20417;-75
2023/03/02 03:17:36;;;;;;;20.07;9.57;;;1.90;1.00;;;;;;5052291;28;20925;-72
2023/03/02 03:20:09;;;;;;;38.63;8.77;;;2.00;1.00;;;;;;5052146;28;20409;-73
2023/03/02 03:22:38;;;;;;;34.37;10.23;;;2.00;1.00;;;;;;5052506;28;20548;-72
2023/03/02 03:25:05;;;;;;;25.53;10.00;;;1.90;1.00;;;;;;5052337;28;20444;-72
2023/03/02 03:27:30;;;;;;;21.67;9.10;;;1.90;1.00;;;;;;5053620;28;20386;-75
2023/03/02 03:29:56;;;;;;;19.97;8.20;;;2.00;1.00;;;;;;5053398;28;20402;-75
2023/03/02 03:32:22;;;;;;;19.30;7.97;;;2.00;1.00;;;;;;5038192;28;20943;-72
2023/03/02 03:34:48;;;;;;;15.30;7.00;;;1.90;1.00;;;;;;5032229;28;20175;-72
2023/03/02 03:37:17;;;;;;;45.67;7.90;;;1.80;1.00;;;;;;5033310;28;20468;-75
2023/03/02 03:39:43;;;;;;;22.97;8.30;;;1.70;1.00;;;;;;5043612;28;20406;-75
2023/03/02 03:42:10;;;;;;;21.07;8.43;;;1.60;1.00;;;;;;5053202;28;20754;-75
2023/03/02 03:44:36;;;;;;;25.03;9.40;;;1.70;1.00;;;;;;5052070;28;20401;-75
2023/03/02 03:47:02;;;;;;;36.77;8.60;;;1.70;1.00;;;;;;5052086;28;20467;-72
2023/03/02 03:49:28;;;;;;;15.40;8.40;;;1.70;1.00;;;;;;5053031;28;20483;-74
2023/03/02 03:51:54;;;;;;;25.43;8.80;;;1.60;1.00;;;;;;5052012;28;20898;-74
2023/03/02 03:54:20;;;;;;;20.40;7.90;;;1.60;1.00;;;;;;5051069;28;20536;-72
2023/03/02 03:56:49;;;;;;;22.10;7.87;;;1.70;1.00;;;;;;5052135;28;20245;-72
2023/03/02 03:59:18;;;;;;;20.77;9.20;;;1.70;1.00;;;;;;5051856;28;20170;-72
2023/03/02 04:01:47;;;;;;;28.63;10.13;;;1.80;1.00;;;;;;5053101;28;20397;-72
2023/03/02 04:04:16;;;;;;;24.07;8.70;;;1.70;1.00;;;;;;5052662;28;20960;-72
2023/03/02 04:06:42;;;;;;;24.70;7.77;;;1.70;1.00;;;;;;5050052;28;20460;-72
2023/03/02 04:09:08;;;;;;;21.73;9.10;;;1.70;1.00;;;;;;5033091;28;20406;-75
2023/03/02 04:11:38;;;;;;;18.53;7.60;;;1.70;1.00;;;;;;5044814;28;20853;-71
2023/03/02 04:14:04;;;;;;;19.90;9.00;;;1.70;1.00;;;;;;5051714;28;20413;-72
2023/03/02 04:16:31;;;;;;;19.07;9.40;;;1.70;1.00;;;;;;5050984;28;20837;-73
2023/03/02 04:18:57;;;;;;;18.93;8.90;;;1.80;1.00;;;;;;5052761;28;20397;-72
2023/03/02 04:21:23;;;;;;;18.73;9.53;;;1.80;1.00;;;;;;5046314;28;20426;-75
2023/03/02 04:23:49;;;;;;;21.57;10.63;;;1.60;1.00;;;;;;5032993;28;20391;-75
2023/03/02 04:26:15;;;;;;;30.63;10.07;;;1.50;1.00;;;;;;5031788;28;20458;-71
2023/03/02 04:28:40;;;;;;;25.60;11.57;;;1.50;1.00;;;;;;5033021;28;20204;-72
2023/03/02 04:31:06;;;;;;;19.00;9.73;;;1.50;1.00;;;;;;5031855;28;20258;-73
2023/03/02 04:33:33;;;;;;;20.57;9.57;;;1.50;1.00;;;;;;5032498;28;20402;-75
2023/03/02 04:35:59;;;;;;;22.10;12.67;;;1.50;1.00;;;;;;5046863;28;20272;-75
2023/03/02 04:38:28;;;;;;;22.60;10.73;;;1.60;1.00;;;;;;5052694;28;20452;-75
2023/03/02 04:40:57;;;;;;;25.97;12.40;;;1.70;1.00;;;;;;5051787;28;20437;-72
2023/03/02 04:43:24;;;;;;;26.30;10.23;;;1.80;1.00;;;;;;5052660;28;20408;-75
2023/03/02 04:45:51;;;;;;;30.93;11.80;;;1.80;1.00;;;;;;5053092;28;20445;-72
2023/03/02 04:48:17;;;;;;;24.73;10.60;;;1.80;1.00;;;;;;5055464;28;20910;-74
2023/03/02 04:50:43;;;;;;;36.93;13.03;;;1.80;1.00;;;;;;5052790;28;20433;-74
2023/03/02 04:53:10;;;;;;;39.53;12.50;;;1.80;1.00;;;;;;5056108;28;20179;-75
2023/03/02 04:55:37;;;;;;;32.40;11.90;;;1.80;1.00;;;;;;5055246;28;20187;-72
2023/03/02 04:58:03;;;;;;;45.33;10.60;;;1.80;1.00;;;;;;5055996;28;20479;-75
2023/03/02 05:00:32;;;;;;;33.27;11.40;;;1.80;1.00;;;;;;5041647;28;20434;-74
2023/03/02 05:02:58;;;;;;;25.70;11.50;;;1.80;1.00;;;;;;5035853;28;20489;-72
2023/03/02 05:05:24;;;;;;;35.33;10.70;;;1.80;1.00;;;;;;5050840;28;20580;-72
2023/03/02 05:07:51;;;;;;;25.70;10.37;;;1.80;1.00;;;;;;5056036;28;20459;-75
2023/03/02 05:10:18;;;;;;;33.83;10.20;;;1.80;1.00;;;;;;5054795;28;20425;-75
2023/03/02 05:12:53;;;;;;;17.80;8.43;;;1.80;1.00;;;;;;5055682;28;20438;-72
2023/03/02 05:15:24;;;;;;;25.77;10.77;;;1.70;1.00;;;;;;5054676;28;20832;-73
2023/03/02 05:17:49;;;;;;;33.00;11.47;;;1.70;1.00;;;;;;5054794;28;20270;-75
2023/03/02 05:20:16;;;;;;;27.90;10.33;;;1.80;1.00;;;;;;5054733;28;20529;-75
2023/03/02 05:22:42;;;;;;;24.10;10.50;;;1.80;1.00;;;;;;5054709;28;20175;-75
2023/03/02 05:25:08;;;;;;;36.90;10.73;;;1.80;1.00;;;;;;5054358;28;20440;-74
2023/03/02 05:27:35;;;;;;;37.83;8.80;;;1.90;1.00;;;;;;5055370;28;20167;-71
2023/03/02 05:30:05;;;;;;;24.37;9.83;;;1.90;1.00;;;;;;5046982;28;20422;-75
2023/03/02 05:32:31;;;;;;;26.40;8.77;;;2.00;1.00;;;;;;5034304;28;20411;-75
2023/03/02 05:34:56;;;;;;;26.87;9.40;;;2.00;1.00;;;;;;5034373;28;20480;-72
2023/03/02 05:37:23;;;;;;;22.10;10.00;;;2.10;1.00;;;;;;5034059;28;20199;-72
2023/03/02 05:39:49;;;;;;;20.43;9.07;;;2.10;1.00;;;;;;5040931;28;20934;-74
2023/03/02 05:42:15;;;;;;;19.50;9.80;;;2.20;1.00;;;;;;5053949;28;20182;-74
2023/03/02 05:44:40;;;;;;;26.67;8.67;;;2.30;1.00;;;;;;5053431;28;20254;-74
2023/03/02 05:47:06;;;;;;;23.53;9.90;;;2.20;1.00;;;;;;5054998;28;20210;-72
2023/03/02 05:49:32;;;;;;;20.43;9.70;;;2.20;1.00;;;;;;5053828;28;20254;-72
2023/03/02 05:51:57;;;;;;;20.40;9.57;;;2.20;1.00;;;;;;5050532;28;20187;-71
2023/03/02 05:54:23;;;;;;;25.70;9.87;;;2.30;1.00;;;;;;5053036;28;20177;-76
2023/03/02 05:56:49;;;;;;;28.20;9.03;;;2.20;1.00;;;;;;5035300;28;20675;-71
2023/03/02 05:59:14;;;;;;;35.43;10.00;;;2.10;1.00;;;;;;5034991;28;20179;-72
2023/03/02 06:01:40;;;;;;;24.40;7.73;;;2.00;1.00;;;;;;5034359;28;20183;-71
2023/03/02 06:04:06;;;;;;;27.43;10.50;;;2.00;1.00;;;;;;5046823;28;20708;-75
2023/03/02 06:06:31;;;;;;;24.53;9.43;;;1.90;1.00;;;;;;5054045;28;20198;-74
2023/03/02 06:08:57;;;;;;;19.47;6.50;;;2.10;1.00;;;;;;5054637;28;20197;-72
2023/03/02 06:11:23;;;;;;;15.80;7.30;;;2.10;1.00;;;;;;5044026;28;20291;-73
2023/03/02 06:13:48;;;;;;;19.67;8.00;;;2.20;1.00;;;;;;5052231;28;20193;-72
2023/03/02 06:16:14;;;;;;;22.70;6.80;;;2.20;1.00;;;;;;5053606;28;20198;-72
2023/03/02 06:18:40;;;;;;;18.37;7.13;;;2.20;1.00;;;;;;5054750;28;20182;-74
2023/03/02 06:21:06;;;;;;;23.17;8.03;;;2.10;1.00;;;;;;5040089;28;20187;-71
2023/03/02 06:23:31;;;;;;;15.87;6.10;;;2.10;1.00;;;;;;5034367;28;20183;-74
2023/03/02 06:25:57;;;;;;;17.67;6.87;;;2.10;1.00;;;;;;5033307;28;20278;-72
2023/03/02 06:28:24;;;;;;;19.23;6.30;;;2.00;1.00;;;;;;5034702;28;20560;-74
2023/03/02 06:30:51;;;;;;;15.83;7.03;;;1.90;1.00;;;;;;5038846;28;20443;-74
2023/03/02 06:33:18;;;;;;;16.47;6.83;;;1.70;1.00;;;;;;5054204;28;20405;-71
2023/03/02 06:35:44;;;;;;;16.57;7.13;;;1.60;1.00;;;;;;5053069;28;20480;-74
2023/03/02 06:38:10;;;;;;;15.20;7.93;;;1.60;1.00;;;;;;5054044;28;20822;-74
2023/03/02 06:40:36;;;;;;;16.70;8.10;;;1.70;1.00;;;;;;5050777;28;20640;-74
2023/03/02 06:43:02;;;;;;;21.10;6.70;;;1.70;1.00;;;;;;5054242;28;20167;-72
2023/03/02 06:45:28;;;;;;;22.03;8.70;;;1.80;1.00;;;;;;5052563;28;20233;-67
2023/03/02 06:47:54;;;;;;;17.00;7.00;;;1.90;1.00;;;;;;5053656;28;20428;-70
2023/03/02 06:50:20;;;;;;;20.40;7.73;;;2.00;1.00;;;;;;5053088;28;20487;-66
2023/03/02 06:52:46;;;;;;;13.70;6.70;;;2.00;1.00;;;;;;5053834;28;20902;-66
2023/03/02 06:55:12;;;;;;;25.27;8.02;;;2.00;1.00;;;;;;5051732;28;20404;-73
2023/03/02 06:57:38;;;;;;;16.37;7.27;;;2.00;1.00;;;;;;5052898;28;20169;-74
2023/03/02 07:00:16;;;;;;;32.17;8.37;;;2.20;1.00;;;;;;5040684;28;20167;-73
2023/03/02 07:02:43;;;;;;;10.17;8.17;;;2.30;1.00;;;;;;5034574;28;20456;-75
2023/03/02 07:05:09;;;;;;;9.47;6.10;;;2.30;1.00;;;;;;5032738;28;20450;-73
2023/03/02 07:07:35;;;;;;;21.20;7.67;;;2.40;1.00;;;;;;5046634;28;20457;-75
2023/03/02 07:10:01;;;;;;;19.43;7.13;;;2.60;1.00;;;;;;5053405;28;20797;-72
2023/03/02 07:12:27;;;;;;;18.33;7.17;;;2.70;1.00;;;;;;5052243;28;20179;-73
2023/03/02 07:14:52;;;;;;;17.33;7.03;;;2.70;1.00;;;;;;5052643;28;20194;-75
2023/03/02 07:17:18;;;;;;;26.70;8.70;;;2.60;1.00;;;;;;5034731;28;20544;-72
2023/03/02 07:19:44;;;;;;;18.07;6.87;;;2.50;1.00;;;;;;5042438;28;20191;-74
2023/03/02 07:22:09;;;;;;;21.77;6.23;;;2.30;1.00;;;;;;5050187;28;20589;-74
2023/03/02 07:24:35;;;;;;;16.93;6.80;;;2.20;1.00;;;;;;5048041;28;20191;-74
2023/03/02 07:27:01;;;;;;;19.10;6.90;;;2.20;1.00;;;;;;5052020;28;20202;-72
2023/03/02 07:29:27;;;;;;;15.00;7.23;;;2.30;1.00;;;;;;5053402;28;20215;-74
2023/03/02 07:31:55;;;;;;;15.43;7.83;;;2.50;1.00;;;;;;5053339;28;20174;-72
2023/03/02 07:34:26;;;;;;;15.30;7.80;;;2.60;1.00;;;;;;5042494;28;20193;-72
2023/03/02 07:36:52;;;;;;;13.23;7.63;;;2.70;1.00;;;;;;5033777;28;20438;-74
2023/03/02 07:39:18;;;;;;;11.00;6.70;;;2.70;1.00;;;;;;5033553;28;20407;-71
2023/03/02 07:41:44;;;;;;;16.40;7.50;;;2.80;1.00;;;;;;5033344;28;20412;-72
2023/03/02 07:44:10;;;;;;;16.60;6.97;;;2.80;1.00;;;;;;5033027;28;20414;-72
2023/03/02 07:46:35;;;;;;;33.70;10.17;;;2.70;1.00;;;;;;5032132;28;20473;-71
2023/03/02 07:49:01;;;;;;;18.03;9.10;;;2.70;1.00;;;;;;5033285;28;20826;-72
2023/03/02 07:51:27;;;;;;;15.10;8.60;;;2.80;1.00;;;;;;5042785;28;20179;-71
2023/03/02 07:53:53;;;;;;;14.27;7.83;;;2.90;1.00;;;;;;5052281;28;20241;-72
2023/03/02 07:56:19;;;;;;;16.87;7.67;;;3.00;1.00;;;;;;5050131;28;20449;-75
2023/03/02 07:58:45;;;;;;;11.40;6.70;;;3.00;1.00;;;;;;5053107;28;20172;-72
2023/03/02 08:01:11;;;;;;;15.17;7.57;;;2.90;1.00;;;;;;5053186;28;20805;-75
2023/03/02 08:03:37;;;;;;;21.87;8.07;;;2.90;1.00;;;;;;5053038;28;20481;-75
2023/03/02 08:06:10;;;;;;;21.00;7.90;;;3.00;1.00;;;;;;5051041;28;20269;-75
2023/03/02 08:08:36;;;;;;;16.90;7.67;;;3.00;1.00;;;;;;5052824;28;20181;-71
2023/03/02 08:11:09;;;;;;;25.03;10.80;;;3.00;1.00;;;;;;5052983;28;20874;-75
2023/03/02 08:13:35;;;;;;;21.03;8.03;;;3.10;1.00;;;;;;5052161;28;20760;-75
2023/03/02 08:16:02;;;;;;;19.97;10.00;;;3.20;1.00;;;;;;5049996;28;20913;-72
2023/03/02 08:18:28;;;;;;;13.90;6.73;;;3.20;1.00;;;;;;5052799;28;20490;-72
2023/03/02 08:20:54;;;;;;;17.20;8.90;;;3.30;1.00;;;;;;5052774;28;20425;-75
2023/03/02 08:23:20;;;;;;;22.87;7.40;;;3.30;1.00;;;;;;5056810;28;20401;-75
2023/03/02 08:25:45;;;;;;;15.60;7.80;;;3.40;1.00;;;;;;5054877;28;20612;-72
2023/03/02 08:28:11;;;;;;;14.57;7.50;;;3.40;1.00;;;;;;5054625;28;20447;-72
2023/03/02 08:30:37;;;;;;;20.03;8.13;;;3.50;1.00;;;;;;5035745;28;20177;-75
2023/03/02 08:33:03;;;;;;;17.23;7.63;;;3.50;99.90;;;;;;5036769;28;20175;-75
2023/03/02 08:35:29;;;;;;;11.47;7.90;;;3.30;99.90;;;;;;5034199;28;20221;-72
2023/03/02 08:37:54;;;;;;;10.23;6.33;;;3.40;99.90;;;;;;5036739;28;20418;-72
2023/03/02 08:40:20;;;;;;;26.67;9.70;;;3.30;99.90;;;;;;5036541;28;20190;-71
2023/03/02 08:42:47;;;;;;;12.40;6.83;;;3.10;99.90;;;;;;5035262;28;20190;-72
2023/03/02 08:45:12;;;;;;;16.50;8.63;;;3.00;99.90;;;;;;5034878;28;20234;-75
2023/03/02 08:47:38;;;;;;;17.17;9.20;;;2.90;99.90;;;;;;5036060;28;20791;-74
2023/03/02 08:50:04;;;;;;;18.20;7.37;;;2.90;99.90;;;;;;5055981;28;20174;-75
2023/03/02 08:52:33;;;;;;;20.67;8.30;;;3.00;99.90;;;;;;5056310;28;20237;-75
2023/03/02 08:54:59;;;;;;;17.60;10.27;;;3.00;99.90;;;;;;5055150;28;20425;-76
2023/03/02 08:57:24;;;;;;;20.43;9.67;;;3.00;99.90;;;;;;5055186;28;20437;-72
2023/03/02 08:59:51;;;;;;;19.37;9.57;;;3.00;99.90;;;;;;5055947;28;20235;-72
2023/03/02 09:02:17;;;;;;;14.97;8.33;;;3.10;99.90;;;;;;5056280;28;20255;-72
2023/03/02 09:04:42;;;;;;;14.10;8.70;;;3.10;99.90;;;;;;5054937;28;20409;-72
2023/03/02 09:07:08;;;;;;;11.67;7.63;;;3.00;99.90;;;;;;5054769;28;20829;-75
2023/03/02 09:09:34;;;;;;;16.80;7.93;;;2.90;99.90;;;;;;5055930;28;20167;-75
2023/03/02 09:12:00;;;;;;;19.00;8.53;;;2.80;99.90;;;;;;5055818;28;20405;-72
2023/03/02 09:14:26;;;;;;;16.90;8.10;;;3.00;99.90;;;;;;5053843;28;20288;-75
2023/03/02 09:16:52;;;;;;;11.33;7.00;;;3.00;99.90;;;;;;5052774;28;20256;-72
2023/03/02 09:19:18;;;;;;;16.03;8.17;;;3.10;99.90;;;;;;5035747;28;20418;-75
2023/03/02 09:21:44;;;;;;;17.67;8.67;;;3.30;99.90;;;;;;5035383;28;20438;-72
2023/03/02 09:24:10;;;;;;;16.20;8.63;;;3.50;99.90;;;;;;5048795;28;20822;-72
2023/03/02 09:26:37;;;;;;;18.10;9.43;;;3.50;99.90;;;;;;5032094;28;20466;-75
2023/03/02 09:29:04;;;;;;;17.37;8.90;;;3.50;99.90;;;;;;5042159;28;20433;-74
2023/03/02 09:31:29;;;;;;;17.30;8.50;;;3.70;99.90;;;;;;5055061;28;20527;-75
2023/03/02 09:33:55;;;;;;;10.40;7.60;;;3.70;99.90;;;;;;5055426;28;20406;-71
2023/03/02 09:36:24;;;;;;;14.30;8.13;;;3.70;99.90;;;;;;5053060;28;20250;-71
2023/03/02 09:38:50;;;;;;;17.77;9.77;;;3.50;99.90;;;;;;5054383;28;20473;-71
2023/03/02 09:41:18;;;;;;;19.40;8.60;;;3.40;99.90;;;;;;5055319;28;20403;-75
2023/03/02 09:43:56;;;;;;;23.50;9.37;;;3.50;99.90;;;;;;5054074;28;20433;-75
2023/03/02 09:46:25;;;;;;;18.57;9.90;;;3.70;99.90;;;;;;5054208;28;20448;-71
2023/03/02 09:49:18;;;;;;;19.23;9.60;;;3.70;99.90;;;;;;5045874;28;20438;-75
2023/03/02 09:51:53;;;;;;;15.87;8.80;;;3.80;99.90;;;;;;5034826;28;20434;-71
2023/03/02 09:54:24;;;;;;;11.30;8.17;;;4.00;99.90;;;;;;5041263;28;20428;-74
2023/03/02 09:56:56;;;;;;;18.20;9.43;;;4.10;99.90;;;;;;5054991;28;20794;-75
2023/03/02 09:59:42;;;;;;;20.37;10.17;;;4.30;99.90;;;;;;5054905;28;20470;-72
2023/03/02 10:02:34;;;;;;;19.60;8.67;;;4.40;99.90;;;;;;5052014;28;20527;-71
2023/03/02 10:05:05;;;;;;;16.93;9.13;;;4.60;99.90;;;;;;5051810;28;20485;-76
2023/03/02 10:07:34;;;;;;;17.40;10.00;;;4.50;99.90;;;;;;5054750;28;20967;-71
2023/03/02 10:10:25;;;;;;;20.00;9.90;;;4.30;99.90;;;;;;5054863;28;20493;-71
2023/03/02 10:13:09;;;;;;;20.57;10.07;;;4.50;99.90;;;;;;5053693;28;20422;-75
2023/03/02 10:15:57;;;;;;;17.70;9.97;;;4.60;99.90;;;;;;5053579;28;20774;-71
2023/03/02 10:18:34;;;;;;;18.30;9.77;;;4.70;99.90;;;;;;5053806;28;20419;-71
2023/03/02 10:21:20;;;;;;;16.67;8.80;;;4.80;99.90;;;;;;5054551;28;20410;-71
2023/03/02 10:24:04;;;;;;;17.57;9.77;;;4.90;99.90;;;;;;5034475;28;20413;-75
2023/03/02 10:26:40;;;;;;;17.53;10.73;;;4.80;99.90;;;;;;5033619;28;20811;-76
2023/03/02 10:29:15;;;;;;;13.73;9.07;;;4.50;99.90;;;;;;5034529;28;20810;-75
2023/03/02 10:31:42;;;;;;;21.70;10.80;;;4.30;99.90;;;;;;5033668;28;20423;-72
2023/03/02 10:34:11;;;;;;;20.40;9.27;;;4.40;99.90;;;;;;5034333;28;20450;-75
2023/03/02 10:36:39;;;;;;;21.63;11.00;;;4.30;99.90;;;;;;5032309;28;20478;-76
2023/03/02 10:39:16;;;;;;;18.63;9.97;;;4.20;99.90;;;;;;5034374;28;20405;-71
2023/03/02 10:41:59;;;;;;;14.13;9.00;;;4.30;99.90;;;;;;5035479;28;21024;-73
2023/03/02 10:44:30;;;;;;;15.93;8.93;;;4.30;99.90;;;;;;5051764;28;20431;-71
2023/03/02 10:46:56;;;;;;;25.40;9.67;;;4.50;99.90;;;;;;5045483;28;20479;-70
2023/03/02 10:49:28;;;;;;;19.20;11.50;;;4.60;99.90;;;;;;5044729;28;20431;-70
2023/03/02 10:51:59;;;;;;;19.40;11.30;;;4.50;99.90;;;;;;5046002;28;20171;-71
2023/03/02 10:54:27;;;;;;;20.57;11.97;;;4.40;99.90;;;;;;5034536;28;20426;-72
2023/03/02 10:56:56;;;;;;;19.23;11.93;;;4.60;99.90;;;;;;5036947;28;20448;-70
2023/03/02 10:59:27;;;;;;;21.80;12.60;;;4.60;99.90;;;;;;5053088;28;20407;-76
2023/03/02 11:02:01;;;;;;;19.00;11.40;;;4.60;99.90;;;;;;5048496;28;20505;-71
2023/03/02 11:04:27;;;;;;;20.40;10.93;;;4.40;99.90;;;;;;5053070;28;20771;-73
2023/03/02 11:06:53;;;;;;;20.73;12.33;;;4.40;99.90;;;;;;5053521;28;20449;-77
2023/03/02 11:09:19;;;;;;;17.10;10.33;;;4.40;99.90;;;;;;5053698;28;20484;-72
2023/03/02 11:12:02;;;;;;;23.80;13.40;;;4.40;99.90;;;;;;5053627;28;20497;-77
2023/03/02 11:14:28;;;;;;;23.80;11.77;;;4.50;99.90;;;;;;5043055;28;20266;-77
2023/03/02 11:16:54;;;;;;;22.80;11.47;;;4.70;99.90;;;;;;5032590;28;20496;-73
2023/03/02 11:19:36;;;;;;;19.13;11.00;;;4.80;99.90;;;;;;5048208;28;20575;-77
2023/03/02 11:22:13;;;;;;;17.27;10.77;;;4.80;99.90;;;;;;5052338;28;20175;-77
2023/03/02 11:24:44;;;;;;;21.00;10.83;;;4.90;99.90;;;;;;5051453;28;20427;-77
2023/03/02 11:27:21;;;;;;;19.77;11.90;;;4.80;99.90;;;;;;5053190;28;20467;-77
2023/03/02 11:29:51;;;;;;;20.10;10.90;;;4.90;99.90;;;;;;5053278;28;20405;-77
2023/03/02 11:32:28;;;;;;;20.47;11.63;;;4.90;99.90;;;;;;5053330;28;20739;-78
2023/03/02 11:35:02;;;;;;;18.43;11.50;;;4.90;99.90;;;;;;5050351;28;20995;-73
2023/03/02 11:37:49;;;;;;;22.63;12.23;;;4.90;91.70;;;;;;5053233;28;20441;-78
2023/03/02 11:40:38;;;;;;;19.70;11.03;;;4.90;76.60;;;;;;5053076;28;20412;-77
2023/03/02 11:43:03;;;;;;;19.67;10.83;;;4.90;66.30;;;;;;5053453;28;20435;-74
2023/03/02 11:45:36;;;;;;;21.07;12.80;;;5.00;70.70;;;;;;5052284;28;20496;-73
2023/03/02 11:48:14;;;;;;;14.17;10.27;;;5.20;71.90;;;;;;5053130;28;20526;-74
2023/03/02 11:51:05;;;;;;;15.57;10.43;;;5.20;54.40;;;;;;5051979;28;20416;-77
2023/03/02 11:54:09;;;;;;;19.90;11.90;;;5.00;20.20;;;;;;5052055;28;20433;-71
2023/03/02 11:56:38;;;;;;;18.93;11.17;;;4.90;1.00;;;;;;5055513;28;20945;-71
2023/03/02 11:59:15;;;;;;;12.53;10.30;;;5.00;1.00;;;;;;5057296;28;20454;-72
2023/03/02 12:01:44;;;;;;;18.60;11.13;;;5.10;1.00;;;;;;5057311;28;20886;-77
2023/03/02 12:04:31;;;;;;;18.03;11.07;;;5.20;1.00;;;;;;5056726;28;20413;-73
2023/03/02 12:06:58;;;;;;;17.20;10.27;;;5.20;1.00;;;;;;5056917;28;21017;-77
2023/03/02 12:09:29;;;;;;;15.03;10.67;;;5.30;1.00;;;;;;5055956;28;20452;-73
2023/03/02 12:12:00;;;;;;;19.07;11.30;;;5.40;1.00;;;;;;5057000;28;20393;-73
2023/03/02 12:14:35;;;;;;;17.27;12.27;;;5.30;1.00;;;;;;5055985;28;20479;-73
2023/03/02 12:17:21;;;;;;;20.00;10.90;;;5.30;1.00;;;;;;5057019;28;20409;-73
2023/03/02 12:19:49;;;;;;;16.47;10.80;;;5.60;1.00;;;;;;5057316;28;20413;-76
2023/03/02 12:22:28;;;;;;;20.60;12.10;;;5.80;1.00;;;;;;5056722;28;20484;-76
2023/03/02 12:25:02;;;;;;;15.07;10.83;;;6.00;1.00;;;;;;5055953;28;20420;-73
2023/03/02 12:27:35;;;;;;;18.67;11.73;;;5.80;1.00;;;;;;5055848;28;20464;-72
2023/03/02 12:30:25;;;;;;;15.43;10.80;;;5.60;1.00;;;;;;5056758;28;20413;-73
2023/03/02 12:33:17;;;;;;;17.30;11.67;;;5.80;1.00;;;;;;5056538;28;20413;-73
2023/03/02 12:35:44;;;;;;;13.83;11.13;;;6.20;1.00;;;;;;5055014;28;20464;-77
2023/03/02 12:38:25;;;;;;;13.93;10.77;;;6.60;1.00;;;;;;5056510;28;20454;-77
2023/03/02 12:41:11;;;;;;;14.90;9.93;;;7.10;1.00;;;;;;5055206;28;20913;-72
2023/03/02 12:44:01;;;;;;;15.20;10.57;;;7.50;1.00;;;;;;5054207;28;20438;-77
2023/03/02 12:46:29;;;;;;;13.17;8.70;;;7.60;99.90;;;;;;5054279;28;20970;-73
2023/03/02 12:49:13;;;;;;;13.80;10.00;;;7.40;99.90;;;;;;5056194;28;20426;-74
2023/03/02 12:51:53;;;;;;;11.60;8.70;;;7.70;99.90;;;;;;5040864;28;20411;-77
2023/03/02 12:54:23;;;;;;;18.47;11.90;;;7.80;99.90;;;;;;5035452;28;20497;-73
2023/03/02 12:56:49;;;;;;;17.47;9.90;;;8.70;99.90;;;;;;5036132;28;21041;-73
2023/03/02 12:59:24;;;;;;;13.90;9.97;;;9.80;99.90;;;;;;5036194;28;20403;-73